createdAt,value
2019-05-07T00:01:45.384Z,8.83
2019-05-07T00:04:14.367Z,9.78
2019-05-07T00:06:43.538Z,9.53
2019-05-07T00:09:13.883Z,9.18
2019-05-07T00:11:42.918Z,8.95
2019-05-07T00:14:12.600Z,9.10
2019-05-07T00:16:42.327Z,8.35
2019-05-07T00:19:12.855Z,10.50
2019-05-07T00:21:42.423Z,9.95
2019-05-07T00:24:13.224Z,9.15
2019-05-07T00:26:43.207Z,8.40
2019-05-07T00:29:12.917Z,9.90
2019-05-07T00:31:42.278Z,9.58
2019-05-07T00:34:12.628Z,8.30
2019-05-07T00:37:06.617Z,8.63
2019-05-07T00:39:56.234Z,9.70
2019-05-07T00:42:43.084Z,8.48
2019-05-07T00:45:21.576Z,10.75
2019-05-07T00:47:49.034Z,9.20
2019-05-07T00:50:23.903Z,8.60
2019-05-07T00:52:52.927Z,9.18
2019-05-07T00:55:22.759Z,10.18
2019-05-07T00:57:52.595Z,9.50
2019-05-07T01:00:22.432Z,8.63
2019-05-07T01:02:52.541Z,10.40
2019-05-07T01:05:23.049Z,8.18
2019-05-07T01:07:52.911Z,9.30
2019-05-07T01:10:22.358Z,9.75
2019-05-07T01:12:53.162Z,9.65
2019-05-07T01:15:30.684Z,10.90
2019-05-07T01:17:52.801Z,9.35
2019-05-07T01:20:22.207Z,8.98
2019-05-07T01:22:54.563Z,9.53
2019-05-07T01:25:22.210Z,9.90
2019-05-07T01:27:53.236Z,8.55
2019-05-07T01:30:23.140Z,8.60
2019-05-07T01:33:06.398Z,9.45
2019-05-07T01:35:52.964Z,8.85
2019-05-07T01:38:22.955Z,8.95
2019-05-07T01:40:52.134Z,9.00
2019-05-07T01:43:22.776Z,9.70
2019-05-07T01:45:53.015Z,10.20
2019-05-07T01:48:22.972Z,8.85
2019-05-07T01:50:52.640Z,10.75
2019-05-07T01:53:22.718Z,9.90
2019-05-07T01:55:52.457Z,9.98
2019-05-07T01:58:22.106Z,10.90
2019-05-07T02:00:53.207Z,13.25
2019-05-07T02:03:27.799Z,10.75
2019-05-07T02:06:24.763Z,10.00
2019-05-07T02:09:12.849Z,11.45
2019-05-07T02:11:43.503Z,10.48
2019-05-07T02:14:13.594Z,11.60
2019-05-07T02:16:42.831Z,10.78
2019-05-07T02:19:12.684Z,10.00
2019-05-07T02:21:42.294Z,11.53
2019-05-07T02:24:12.628Z,10.28
2019-05-07T02:26:42.737Z,11.63
2019-05-07T02:29:12.317Z,10.63
2019-05-07T02:31:44.145Z,11.55
2019-05-07T02:34:14.038Z,11.85
2019-05-07T02:36:43.474Z,11.33
2019-05-07T02:39:18.780Z,10.53
2019-05-07T02:41:47.800Z,11.80
2019-05-07T02:44:16.774Z,11.38
2019-05-07T02:47:12.927Z,10.45
2019-05-07T02:50:06.249Z,10.35
2019-05-07T02:53:06.663Z,10.65
2019-05-07T02:55:47.534Z,9.45
2019-05-07T02:58:16.576Z,11.15
2019-05-07T03:00:45.604Z,10.68
2019-05-07T03:03:14.671Z,11.22
2019-05-07T03:05:43.658Z,12.37
2019-05-07T03:08:13.656Z,12.37
2019-05-07T03:10:43.642Z,10.95
2019-05-07T03:13:13.778Z,12.63
2019-05-07T03:15:43.877Z,10.85
2019-05-07T03:18:13.952Z,11.15
2019-05-07T03:20:53.448Z,12.55
2019-05-07T03:23:24.700Z,10.20
2019-05-07T03:25:57.826Z,12.68
2019-05-07T03:28:26.953Z,10.10
2019-05-07T03:31:08.882Z,10.88
2019-05-07T03:33:59.674Z,11.25
2019-05-07T03:36:48.279Z,10.65
2019-05-07T03:39:17.172Z,9.85
2019-05-07T03:41:46.176Z,10.35
2019-05-07T03:44:25.134Z,8.05
2019-05-07T03:47:01.798Z,11.43
2019-05-07T03:49:28.706Z,12.65
2019-05-07T03:51:57.858Z,10.60
2019-05-07T03:54:26.868Z,10.50
2019-05-07T03:56:55.855Z,11.45
2019-05-07T03:59:25.002Z,10.60
2019-05-07T04:01:54.028Z,10.05
2019-05-07T04:04:23.284Z,9.08
2019-05-07T04:06:53.779Z,9.53
2019-05-07T04:09:24.109Z,8.83
2019-05-07T04:11:53.284Z,9.15
2019-05-07T04:14:23.179Z,10.13
2019-05-07T04:16:53.586Z,9.25
2019-05-07T04:19:23.608Z,9.45
2019-05-07T04:21:53.548Z,11.48
2019-05-07T04:24:29.386Z,9.05
2019-05-07T04:27:07.265Z,10.10
2019-05-07T04:29:36.279Z,10.28
2019-05-07T04:32:05.278Z,8.95
2019-05-07T04:34:59.137Z,10.80
2019-05-07T04:37:29.766Z,11.12
2019-05-07T04:39:58.817Z,11.15
2019-05-07T04:42:27.806Z,9.90
2019-05-07T04:44:56.812Z,9.78
2019-05-07T04:47:38.742Z,10.93
2019-05-07T04:49:56.459Z,10.98
2019-05-07T04:52:36.320Z,8.88
2019-05-07T04:55:06.147Z,9.48
2019-05-07T04:57:36.314Z,9.63
2019-05-07T05:00:06.064Z,9.35
2019-05-07T05:02:56.265Z,9.80
2019-05-07T05:05:25.609Z,9.73
2019-05-07T05:07:54.639Z,9.50
2019-05-07T05:10:23.636Z,8.28
2019-05-07T05:12:53.707Z,9.10
2019-05-07T05:15:22.958Z,9.35
2019-05-07T05:17:54.961Z,8.75
2019-05-07T05:20:33.616Z,9.00
2019-05-07T05:23:13.171Z,7.33
2019-05-07T05:25:43.274Z,7.55
2019-05-07T05:28:15.488Z,6.87
2019-05-07T05:30:50.229Z,7.15
2019-05-07T05:33:19.874Z,6.62
2019-05-07T05:35:49.520Z,5.95
2019-05-07T05:38:19.147Z,6.80
2019-05-07T05:40:48.191Z,6.17
2019-05-07T05:43:36.195Z,6.92
2019-05-07T05:46:06.760Z,6.15
2019-05-07T05:48:36.905Z,7.33
2019-05-07T05:51:24.427Z,5.60
2019-05-07T05:54:08.875Z,5.65
2019-05-07T05:56:52.250Z,5.62
2019-05-07T05:59:49.051Z,5.28
2019-05-07T06:02:53.277Z,6.00
2019-05-07T06:05:48.023Z,6.10
2019-05-07T06:08:36.586Z,4.22
2019-05-07T06:11:18.058Z,5.25
2019-05-07T06:14:12.971Z,5.28
2019-05-07T06:16:48.475Z,5.30
2019-05-07T06:19:39.815Z,4.22
2019-05-07T06:22:37.488Z,4.60
2019-05-07T06:25:14.869Z,5.47
2019-05-07T06:27:44.402Z,4.03
2019-05-07T06:30:13.610Z,4.37
2019-05-07T06:32:43.077Z,4.55
2019-05-07T06:35:12.546Z,4.67
2019-05-07T06:37:42.900Z,5.05
2019-05-07T06:40:29.410Z,4.75
2019-05-07T06:43:26.942Z,3.60
2019-05-07T06:45:57.416Z,5.10
2019-05-07T06:48:37.882Z,4.25
2019-05-07T06:50:57.092Z,4.90
2019-05-07T06:53:26.905Z,3.60
2019-05-07T06:55:57.006Z,3.55
2019-05-07T06:58:32.559Z,3.70
2019-05-07T07:01:12.100Z,3.55
2019-05-07T07:04:02.390Z,3.50
2019-05-07T07:06:37.121Z,4.33
2019-05-07T07:09:22.239Z,3.33
2019-05-07T07:11:56.224Z,3.95
2019-05-07T07:14:25.978Z,3.95
2019-05-07T07:16:55.593Z,3.12
2019-05-07T07:19:25.282Z,4.10
2019-05-07T07:21:54.975Z,3.20
2019-05-07T07:24:24.643Z,3.90
2019-05-07T07:26:54.275Z,3.52
2019-05-07T07:29:25.927Z,3.95
2019-05-07T07:31:58.482Z,3.55
2019-05-07T07:34:29.988Z,3.85
2019-05-07T07:37:15.515Z,4.50
2019-05-07T07:39:43.192Z,5.22
2019-05-07T07:42:12.827Z,5.45
2019-05-07T07:44:42.666Z,4.12
2019-05-07T07:47:12.951Z,4.85
2019-05-07T07:49:42.797Z,4.90
2019-05-07T07:52:12.434Z,5.03
2019-05-07T07:54:42.893Z,4.97
2019-05-07T07:57:34.760Z,5.83
2019-05-07T08:00:12.444Z,4.90
2019-05-07T08:02:56.469Z,4.78
2019-05-07T08:05:26.131Z,5.05
2019-05-07T08:07:55.759Z,5.03
2019-05-07T08:10:25.401Z,5.97
2019-05-07T08:12:55.098Z,5.15
2019-05-07T08:15:24.956Z,5.55
2019-05-07T08:17:55.168Z,4.95
2019-05-07T08:20:25.145Z,5.87
2019-05-07T08:22:54.735Z,5.33
2019-05-07T08:25:43.325Z,5.40
2019-05-07T08:28:13.001Z,5.70
2019-05-07T08:30:44.376Z,5.87
2019-05-07T08:33:27.164Z,6.45
2019-05-07T08:36:12.083Z,5.90
2019-05-07T08:38:52.728Z,5.95
2019-05-07T08:41:24.132Z,6.20
2019-05-07T08:44:10.637Z,5.92
2019-05-07T08:46:44.206Z,5.75
2019-05-07T08:49:14.134Z,6.67
2019-05-07T08:51:43.775Z,7.17
2019-05-07T08:54:13.399Z,5.78
2019-05-07T08:56:43.075Z,5.28
2019-05-07T08:59:12.688Z,4.70
2019-05-07T09:01:43.406Z,6.20
2019-05-07T09:04:13.619Z,5.33
2019-05-07T09:06:43.382Z,6.45
2019-05-07T09:09:13.908Z,6.03
2019-05-07T09:11:43.591Z,7.17
2019-05-07T09:14:13.195Z,7.37
2019-05-07T09:16:43.027Z,6.53
2019-05-07T09:19:13.066Z,6.60
2019-05-07T09:21:43.664Z,6.78
2019-05-07T09:24:13.487Z,8.30
2019-05-07T09:26:48.942Z,6.95
2019-05-07T09:29:36.105Z,7.97
2019-05-07T09:32:16.708Z,8.33
2019-05-07T09:34:47.467Z,7.87
2019-05-07T09:37:22.622Z,7.67
2019-05-07T09:39:52.362Z,7.80
2019-05-07T09:42:22.564Z,7.50
2019-05-07T09:44:52.916Z,7.25
2019-05-07T09:47:22.748Z,8.50
2019-05-07T09:50:03.893Z,8.05
2019-05-07T09:52:23.670Z,7.37
2019-05-07T09:54:53.268Z,7.75
2019-05-07T09:57:30.875Z,7.00
2019-05-07T09:59:54.344Z,7.00
2019-05-07T10:02:24.011Z,7.08
2019-05-07T10:04:53.667Z,7.10
2019-05-07T10:07:23.315Z,7.92
2019-05-07T10:09:52.580Z,7.58
2019-05-07T10:12:35.846Z,8.50
2019-05-07T10:15:04.936Z,7.87
2019-05-07T10:17:47.574Z,7.12
2019-05-07T10:20:22.096Z,6.90
2019-05-07T10:22:47.524Z,6.42
2019-05-07T10:25:16.761Z,7.12
2019-05-07T10:27:45.837Z,7.12
2019-05-07T10:30:14.790Z,6.97
2019-05-07T10:32:43.880Z,7.28
2019-05-07T10:35:13.045Z,6.75
2019-05-07T10:37:42.451Z,7.40
2019-05-07T10:40:13.005Z,8.63
2019-05-07T10:42:43.103Z,7.83
2019-05-07T10:45:38.196Z,7.10
2019-05-07T10:48:16.524Z,6.87
2019-05-07T10:50:47.911Z,7.95
2019-05-07T10:53:17.643Z,6.80
2019-05-07T10:55:47.224Z,6.83
2019-05-07T10:58:16.960Z,6.80
2019-05-07T11:00:46.595Z,7.28
2019-05-07T11:03:16.200Z,7.25
2019-05-07T11:05:45.228Z,7.80
2019-05-07T11:08:14.194Z,7.42
2019-05-07T11:10:43.887Z,6.28
2019-05-07T11:13:13.011Z,6.75
2019-05-07T11:15:43.820Z,6.58
2019-05-07T11:18:21.848Z,7.28
2019-05-07T11:20:53.343Z,6.90
2019-05-07T11:23:22.211Z,7.53
2019-05-07T11:25:52.791Z,6.72
2019-05-07T11:28:22.780Z,6.05
2019-05-07T11:30:52.644Z,6.92
2019-05-07T11:33:22.237Z,8.03
2019-05-07T11:35:52.840Z,7.67
2019-05-07T11:38:24.934Z,7.65
2019-05-07T11:40:54.432Z,9.28
2019-05-07T11:43:48.871Z,8.40
2019-05-07T11:46:22.975Z,8.48
2019-05-07T11:48:57.950Z,8.93
2019-05-07T11:51:33.940Z,8.78
2019-05-07T11:54:14.039Z,8.10
2019-05-07T11:56:43.637Z,8.18
2019-05-07T11:59:13.645Z,9.00
2019-05-07T12:01:47.828Z,7.85
2019-05-07T12:04:18.007Z,8.00
2019-05-07T12:06:47.650Z,7.97
2019-05-07T12:09:17.243Z,7.22
2019-05-07T12:11:46.882Z,6.90
2019-05-07T12:14:27.992Z,7.60
2019-05-07T12:16:47.780Z,7.03
2019-05-07T12:19:17.410Z,7.50
2019-05-07T12:21:47.309Z,8.10
2019-05-07T12:24:16.944Z,6.47
2019-05-07T12:26:46.703Z,6.22
2019-05-07T12:29:16.354Z,7.30
2019-05-07T12:32:21.967Z,6.72
2019-05-07T12:34:57.820Z,8.40
2019-05-07T12:37:27.451Z,6.95
2019-05-07T12:39:57.052Z,7.03
2019-05-07T12:42:26.729Z,7.17
2019-05-07T12:44:56.366Z,7.55
2019-05-07T12:47:26.037Z,7.97
2019-05-07T12:49:55.774Z,6.60
2019-05-07T12:52:47.391Z,6.00
2019-05-07T12:55:25.468Z,7.40
2019-05-07T12:57:55.054Z,6.67
2019-05-07T13:00:42.903Z,8.08
2019-05-07T13:03:21.839Z,8.28
2019-05-07T13:05:52.097Z,9.38
2019-05-07T13:08:23.024Z,9.05
2019-05-07T13:10:52.846Z,9.15
2019-05-07T13:13:22.528Z,8.50
2019-05-07T13:15:52.200Z,8.50
2019-05-07T13:18:22.664Z,9.75
2019-05-07T13:20:52.057Z,9.40
2019-05-07T13:23:22.500Z,9.35
2019-05-07T13:25:52.372Z,9.50
2019-05-07T13:28:22.240Z,8.80
2019-05-07T13:30:52.594Z,8.90
2019-05-07T13:33:23.231Z,10.10
2019-05-07T13:35:53.044Z,9.00
2019-05-07T13:38:42.652Z,9.88
2019-05-07T13:41:28.131Z,9.30
2019-05-07T13:44:18.282Z,8.18
2019-05-07T13:46:49.843Z,9.13
2019-05-07T13:49:21.828Z,9.43
2019-05-07T13:52:02.861Z,9.65
2019-05-07T13:54:23.125Z,8.63
2019-05-07T13:56:52.723Z,10.03
2019-05-07T13:59:22.719Z,9.05
2019-05-07T14:02:04.525Z,8.28
2019-05-07T14:04:36.743Z,9.85
2019-05-07T14:07:06.385Z,7.10
2019-05-07T14:09:37.344Z,7.87
2019-05-07T14:12:06.968Z,7.85
2019-05-07T14:14:36.855Z,6.65
2019-05-07T14:17:06.480Z,7.47
2019-05-07T14:19:36.114Z,6.78
2019-05-07T14:22:15.175Z,6.37
2019-05-07T14:24:37.095Z,8.10
2019-05-07T14:27:06.749Z,6.95
2019-05-07T14:29:36.459Z,8.00
2019-05-07T14:32:41.921Z,7.08
2019-05-07T14:35:49.187Z,7.40
2019-05-07T14:38:32.111Z,7.33
2019-05-07T14:41:02.665Z,7.78
2019-05-07T14:43:47.050Z,8.60
2019-05-07T14:46:16.715Z,7.22
2019-05-07T14:48:46.476Z,8.55
2019-05-07T14:51:16.196Z,8.98
2019-05-07T14:53:45.801Z,10.80
2019-05-07T14:56:16.845Z,9.65
2019-05-07T14:58:46.618Z,8.35
2019-05-07T15:01:16.284Z,8.98
2019-05-07T15:03:46.040Z,7.15
2019-05-07T15:06:15.761Z,9.10
2019-05-07T15:08:45.355Z,7.58
2019-05-07T15:11:15.094Z,7.33
2019-05-07T15:13:44.696Z,7.40
2019-05-07T15:16:14.661Z,7.35
2019-05-07T15:19:01.298Z,7.10
2019-05-07T15:21:32.287Z,6.45
2019-05-07T15:24:03.252Z,6.25
2019-05-07T15:26:33.092Z,7.00
2019-05-07T15:29:14.350Z,7.28
2019-05-07T15:32:03.483Z,6.33
2019-05-07T15:34:33.251Z,7.92
2019-05-07T15:37:02.854Z,8.33
2019-05-07T15:39:32.881Z,7.45
2019-05-07T15:42:02.727Z,8.23
2019-05-07T15:44:32.383Z,8.40
2019-05-07T15:47:04.671Z,7.95
2019-05-07T15:49:34.350Z,8.95
2019-05-07T15:52:06.860Z,7.40
2019-05-07T15:54:36.522Z,8.08
2019-05-07T15:57:08.405Z,9.15
2019-05-07T15:59:38.108Z,8.68
2019-05-07T16:02:19.911Z,8.45
2019-05-07T16:04:49.596Z,10.05
2019-05-07T16:07:19.263Z,9.48
2019-05-07T16:09:48.900Z,9.73
2019-05-07T16:12:22.617Z,9.45
2019-05-07T16:14:52.467Z,10.40
2019-05-07T16:17:28.752Z,10.60
2019-05-07T16:19:58.502Z,10.10
2019-05-07T16:22:33.142Z,9.03
2019-05-07T16:25:06.890Z,8.45
2019-05-07T16:27:37.249Z,9.00
2019-05-07T16:30:07.027Z,8.70
2019-05-07T16:32:36.615Z,8.33
2019-05-07T16:35:06.459Z,8.75
2019-05-07T16:37:36.160Z,9.40
2019-05-07T16:40:06.655Z,9.40
2019-05-07T16:42:38.230Z,10.35
2019-05-07T16:45:08.244Z,12.90
2019-05-07T16:47:37.903Z,10.72
2019-05-07T16:50:09.650Z,12.05
2019-05-07T16:52:41.854Z,10.18
2019-05-07T16:55:12.242Z,10.48
2019-05-07T16:58:01.756Z,9.10
2019-05-07T17:00:36.594Z,10.20
2019-05-07T17:03:08.588Z,9.50
2019-05-07T17:05:38.286Z,9.85
2019-05-07T17:08:25.511Z,10.88
2019-05-07T17:10:55.213Z,10.05
2019-05-07T17:13:25.024Z,10.85
2019-05-07T17:15:55.915Z,11.45
2019-05-07T17:18:26.615Z,10.95
2019-05-07T17:20:57.420Z,11.05
2019-05-07T17:23:34.426Z,11.45
2019-05-07T17:25:58.752Z,10.43
2019-05-07T17:28:28.964Z,11.38
2019-05-07T17:30:58.788Z,11.80
2019-05-07T17:33:28.452Z,11.22
2019-05-07T17:35:58.089Z,11.25
2019-05-07T17:38:27.784Z,12.68
2019-05-07T17:41:09.962Z,12.05
2019-05-07T17:43:28.806Z,10.95
2019-05-07T17:45:58.403Z,12.78
2019-05-07T17:48:28.062Z,12.80
2019-05-07T17:51:28.821Z,12.88
2019-05-07T17:54:03.500Z,13.95
2019-05-07T17:56:33.236Z,12.45
2019-05-07T17:59:03.003Z,13.45
2019-05-07T18:01:50.256Z,14.15
2019-05-07T18:04:21.124Z,12.45
2019-05-07T18:06:52.210Z,13.45
2019-05-07T18:09:22.584Z,14.10
2019-05-07T18:11:52.448Z,12.80
2019-05-07T18:14:22.878Z,13.53
2019-05-07T18:17:14.291Z,13.00
2019-05-07T18:19:44.954Z,13.20
2019-05-07T18:22:14.697Z,13.90
2019-05-07T18:24:44.443Z,14.90
2019-05-07T18:27:23.663Z,15.08
2019-05-07T18:29:55.932Z,15.93
2019-05-07T18:32:37.076Z,16.50
2019-05-07T18:35:07.321Z,15.75
2019-05-07T18:37:38.640Z,15.55
2019-05-07T18:40:08.479Z,17.12
2019-05-07T18:42:38.107Z,18.65
2019-05-07T18:45:08.028Z,16.00
2019-05-07T18:47:37.649Z,16.67
2019-05-07T18:50:09.559Z,17.95
2019-05-07T18:52:42.426Z,14.90
2019-05-07T18:55:12.227Z,17.82
2019-05-07T18:57:42.247Z,16.60
2019-05-07T19:00:17.155Z,16.07
2019-05-07T19:02:46.820Z,18.10
2019-05-07T19:05:19.288Z,16.32
2019-05-07T19:07:47.842Z,18.80
2019-05-07T19:10:17.800Z,17.85
2019-05-07T19:12:47.929Z,16.80
2019-05-07T19:15:17.674Z,19.17
2019-05-07T19:17:47.285Z,17.15
2019-05-07T19:20:17.052Z,18.70
2019-05-07T19:22:46.684Z,19.77
2019-05-07T19:25:16.663Z,19.80
2019-05-07T19:27:46.328Z,19.62
2019-05-07T19:30:16.296Z,18.42
2019-05-07T19:32:45.932Z,19.95
2019-05-07T19:35:15.911Z,20.05
2019-05-07T19:37:45.569Z,20.62
2019-05-07T19:40:15.357Z,22.65
2019-05-07T19:42:45.000Z,21.70
2019-05-07T19:45:17.973Z,21.80
2019-05-07T19:47:46.422Z,23.65
2019-05-07T19:50:16.296Z,22.75
2019-05-07T19:52:45.924Z,23.67
2019-05-07T19:55:15.609Z,25.27
2019-05-07T19:57:52.068Z,24.43
2019-05-07T20:00:23.090Z,23.70
2019-05-07T20:02:54.373Z,21.95
2019-05-07T20:05:24.102Z,25.45
2019-05-07T20:07:58.680Z,22.60
2019-05-07T20:10:42.099Z,24.32
2019-05-07T20:13:12.514Z,23.32
2019-05-07T20:15:48.466Z,25.80
2019-05-07T20:18:18.067Z,23.80
2019-05-07T20:20:47.715Z,25.65
2019-05-07T20:23:17.306Z,26.52
2019-05-07T20:25:47.046Z,27.42
2019-05-07T20:28:16.687Z,27.48
2019-05-07T20:30:46.356Z,22.98
2019-05-07T20:33:15.987Z,25.52
2019-05-07T20:35:45.640Z,25.70
2019-05-07T20:38:15.256Z,22.77
2019-05-07T20:40:44.927Z,22.90
2019-05-07T20:43:14.546Z,24.55
2019-05-07T20:45:44.198Z,21.77
2019-05-07T20:48:13.784Z,22.55
2019-05-07T20:50:43.427Z,22.00
2019-05-07T20:53:13.063Z,22.95
2019-05-07T20:56:02.228Z,23.47
2019-05-07T20:58:32.825Z,24.90
2019-05-07T21:01:02.954Z,25.10
2019-05-07T21:03:32.699Z,27.05
2019-05-07T21:06:02.439Z,25.75
2019-05-07T21:08:32.609Z,26.87
2019-05-07T21:11:02.654Z,27.85
2019-05-07T21:13:34.991Z,30.48
2019-05-07T21:16:03.749Z,29.02
2019-05-07T21:18:33.420Z,31.57
2019-05-07T21:21:03.087Z,32.70
2019-05-07T21:23:32.822Z,29.75
2019-05-07T21:26:04.024Z,33.10
2019-05-07T21:28:33.739Z,34.23
2019-05-07T21:31:03.460Z,33.63
2019-05-07T21:33:33.053Z,34.38
2019-05-07T21:36:02.982Z,33.23
2019-05-07T21:38:33.054Z,34.05
2019-05-07T21:41:02.870Z,34.83
2019-05-07T21:43:32.787Z,36.77
2019-05-07T21:46:02.527Z,33.38
2019-05-07T21:48:32.918Z,36.58
2019-05-07T21:51:02.658Z,36.42
2019-05-07T21:53:47.215Z,33.10
2019-05-07T21:56:34.549Z,33.70
2019-05-07T21:59:08.892Z,35.17
2019-05-07T22:01:43.693Z,32.78
2019-05-07T22:04:13.468Z,35.05
2019-05-07T22:06:45.570Z,33.28
2019-05-07T22:09:14.519Z,35.73
2019-05-07T22:11:47.307Z,35.52
2019-05-07T22:14:16.935Z,34.90
2019-05-07T22:16:46.675Z,33.05
2019-05-07T22:19:16.287Z,33.48
2019-05-07T22:21:45.962Z,33.28
2019-05-07T22:24:15.546Z,36.50
2019-05-07T22:26:45.301Z,32.48
2019-05-07T22:29:14.972Z,34.23
2019-05-07T22:32:02.594Z,34.75
2019-05-07T22:34:51.887Z,32.63
2019-05-07T22:37:21.989Z,32.42
2019-05-07T22:39:51.832Z,36.00
2019-05-07T22:42:22.390Z,37.83
2019-05-07T22:44:52.355Z,34.80
2019-05-07T22:47:22.832Z,39.08
2019-05-07T22:49:53.634Z,38.25
2019-05-07T22:52:23.752Z,37.45
2019-05-07T22:54:53.436Z,36.63
2019-05-07T22:57:47.012Z,39.35
2019-05-07T23:00:23.898Z,37.17
2019-05-07T23:02:53.933Z,40.48
2019-05-07T23:05:23.724Z,39.85
2019-05-07T23:07:53.372Z,36.85
2019-05-07T23:10:23.014Z,38.83
2019-05-07T23:12:52.710Z,40.10
2019-05-07T23:15:22.669Z,39.35
2019-05-07T23:17:52.415Z,40.17
2019-05-07T23:20:24.174Z,40.35
2019-05-07T23:22:53.478Z,41.65
2019-05-07T23:25:24.602Z,39.23
2019-05-07T23:27:54.472Z,43.30
2019-05-07T23:30:24.129Z,41.53
2019-05-07T23:32:53.775Z,39.98
2019-05-07T23:35:23.375Z,40.35
2019-05-07T23:37:53.097Z,40.92
2019-05-07T23:40:44.413Z,42.65
2019-05-07T23:43:14.643Z,42.17
2019-05-07T23:45:44.299Z,45.03
2019-05-07T23:48:13.946Z,41.40
2019-05-07T23:50:43.565Z,42.83
2019-05-07T23:53:13.251Z,42.08
2019-05-07T23:55:42.875Z,46.08
2019-05-07T23:58:14.184Z,45.78
